createdAt,value
2019-01-08T00:01:46.916Z,12.43
2019-01-08T00:06:49.814Z,13.27
2019-01-08T00:11:52.099Z,11.50
2019-01-08T00:16:54.542Z,12.40
2019-01-08T00:21:56.745Z,11.03
2019-01-08T00:26:59.264Z,13.07
2019-01-08T00:32:01.456Z,11.00
2019-01-08T00:37:04.434Z,10.10
2019-01-08T00:42:06.616Z,11.20
2019-01-08T00:47:08.829Z,10.70
2019-01-08T00:52:11.212Z,8.13
2019-01-08T00:57:14.559Z,10.23
2019-01-08T01:02:17.245Z,9.67
2019-01-08T01:07:19.449Z,10.17
2019-01-08T01:12:21.879Z,8.67
2019-01-08T01:17:24.047Z,11.73
2019-01-08T01:22:26.401Z,8.50
2019-01-08T01:27:28.811Z,7.93
2019-01-08T01:32:31.451Z,8.13
2019-01-08T01:37:34.576Z,8.80
2019-01-08T01:42:36.776Z,7.40
2019-01-08T01:47:39.440Z,8.00
2019-01-08T01:52:42.365Z,7.60
2019-01-08T01:57:45.002Z,8.90
2019-01-08T02:02:47.447Z,8.23
2019-01-08T02:07:50.231Z,7.13
2019-01-08T02:12:52.507Z,7.63
2019-01-08T02:17:54.899Z,8.67
2019-01-08T02:22:57.084Z,7.33
2019-01-08T02:28:00.290Z,7.33
2019-01-08T02:33:02.662Z,8.00
2019-01-08T02:38:05.560Z,8.67
2019-01-08T02:43:07.728Z,9.23
2019-01-08T02:48:10.430Z,8.73
2019-01-08T02:53:12.577Z,8.33
2019-01-08T02:58:14.743Z,9.77
2019-01-08T03:03:17.641Z,9.83
2019-01-08T03:08:20.168Z,12.07
2019-01-08T03:13:22.306Z,9.47
2019-01-08T03:18:24.757Z,12.20
2019-01-08T03:23:27.649Z,9.07
2019-01-08T03:28:30.553Z,14.07
2019-01-08T03:33:32.711Z,15.53
2019-01-08T03:38:34.889Z,13.53
2019-01-08T03:43:37.058Z,9.17
2019-01-08T03:48:39.264Z,11.13
2019-01-08T03:53:41.921Z,9.77
2019-01-08T03:58:44.072Z,11.50
2019-01-08T04:03:47.240Z,12.07
2019-01-08T04:08:50.095Z,10.07
2019-01-08T04:13:52.283Z,7.27
2019-01-08T04:18:55.188Z,8.50
2019-01-08T04:23:57.611Z,9.93
2019-01-08T04:29:00.267Z,6.93
2019-01-08T04:34:03.227Z,7.90
2019-01-08T04:39:05.558Z,7.60
2019-01-08T04:44:07.797Z,12.50
2019-01-08T04:49:09.989Z,10.57
2019-01-08T04:54:12.870Z,10.83
2019-01-08T04:59:15.075Z,12.83
2019-01-08T05:04:17.506Z,8.70
2019-01-08T05:09:20.542Z,9.23
2019-01-08T05:14:23.013Z,6.10
2019-01-08T05:19:25.195Z,9.57
2019-01-08T05:24:27.639Z,9.87
2019-01-08T05:29:29.816Z,17.47
2019-01-08T05:34:32.032Z,17.20
2019-01-08T05:39:34.478Z,14.40
2019-01-08T05:44:36.698Z,11.70
2019-01-08T05:49:39.358Z,13.63
2019-01-08T05:54:41.535Z,12.77
2019-01-08T05:59:44.365Z,15.10
2019-01-08T06:04:46.763Z,14.33
2019-01-08T06:09:49.142Z,11.83
2019-01-08T06:14:51.697Z,16.37
2019-01-08T06:19:55.206Z,13.07
2019-01-08T06:24:57.878Z,11.53
2019-01-08T06:30:01.162Z,13.83
2019-01-08T06:35:04.617Z,12.37
2019-01-08T06:40:06.948Z,8.47
2019-01-08T06:45:09.451Z,14.63
2019-01-08T06:50:12.009Z,15.53
2019-01-08T06:55:15.135Z,15.13
2019-01-08T07:00:18.793Z,14.43
2019-01-08T07:05:21.813Z,9.97
2019-01-08T07:10:24.477Z,16.47
2019-01-08T07:15:27.179Z,14.13
2019-01-08T07:20:29.363Z,16.13
2019-01-08T07:25:31.660Z,14.90
2019-01-08T07:30:41.266Z,13.30
2019-01-08T07:35:37.994Z,10.90
2019-01-08T07:40:41.422Z,14.47
2019-01-08T07:45:43.758Z,14.60
2019-01-08T07:50:47.213Z,10.33
2019-01-08T07:55:49.387Z,7.87
2019-01-08T08:00:51.547Z,9.77
2019-01-08T08:05:53.684Z,9.60
2019-01-08T08:10:56.363Z,15.47
2019-01-08T08:15:58.988Z,12.23
2019-01-08T08:21:01.657Z,16.40
2019-01-08T08:26:03.919Z,11.53
2019-01-08T08:31:06.504Z,8.93
2019-01-08T08:36:08.733Z,9.97
2019-01-08T08:41:10.916Z,10.63
2019-01-08T08:46:14.059Z,10.97
2019-01-08T08:51:16.256Z,13.80
2019-01-08T08:56:19.006Z,12.40
2019-01-08T09:01:21.722Z,14.37
2019-01-08T09:06:24.405Z,10.60
2019-01-08T09:11:27.237Z,11.40
2019-01-08T09:16:29.738Z,11.93
2019-01-08T09:21:32.298Z,7.90
2019-01-08T09:26:35.289Z,11.90
2019-01-08T09:31:37.905Z,11.27
2019-01-08T09:36:40.609Z,7.60
2019-01-08T09:41:42.773Z,8.50
2019-01-08T09:46:44.949Z,9.23
2019-01-08T09:51:47.716Z,6.53
2019-01-08T09:56:50.156Z,12.53
2019-01-08T10:01:52.635Z,8.70
2019-01-08T10:06:55.307Z,6.97
2019-01-08T10:11:58.215Z,8.13
2019-01-08T10:17:00.846Z,10.10
2019-01-08T10:22:03.368Z,11.67
2019-01-08T10:27:05.844Z,9.10
2019-01-08T10:32:08.382Z,7.87
2019-01-08T10:37:11.059Z,7.00
2019-01-08T10:42:13.727Z,6.00
2019-01-08T10:47:16.486Z,7.93
2019-01-08T10:52:18.647Z,8.53
2019-01-08T10:57:20.772Z,5.97
2019-01-08T11:02:23.648Z,8.00
2019-01-08T11:07:26.296Z,7.83
2019-01-08T11:12:29.680Z,5.80
2019-01-08T11:17:31.958Z,4.97
2019-01-08T11:22:34.150Z,3.60
2019-01-08T11:27:37.764Z,5.70
2019-01-08T11:32:39.973Z,4.93
2019-01-08T11:37:42.358Z,5.93
2019-01-08T11:42:44.791Z,4.60
2019-01-08T11:47:47.909Z,4.00
2019-01-08T11:52:50.516Z,5.70
2019-01-08T11:57:53.213Z,4.17
2019-01-08T12:02:55.665Z,7.07
2019-01-08T12:07:58.127Z,4.33
2019-01-08T12:13:02.263Z,5.60
2019-01-08T12:18:05.246Z,6.67
2019-01-08T12:23:13.963Z,6.97
2019-01-08T12:28:16.301Z,6.77
2019-01-08T12:33:18.489Z,4.53
2019-01-08T12:38:20.701Z,4.20
2019-01-08T12:43:23.059Z,9.77
2019-01-08T12:48:25.195Z,6.77
2019-01-08T12:53:27.603Z,5.07
2019-01-08T12:58:30.040Z,9.70
2019-01-08T13:03:32.473Z,7.90
2019-01-08T13:08:34.930Z,6.57
2019-01-08T13:13:37.296Z,7.83
2019-01-08T13:18:39.928Z,10.13
2019-01-08T13:23:43.076Z,8.33
2019-01-08T13:28:45.445Z,8.00
2019-01-08T13:33:47.799Z,8.70
2019-01-08T13:38:50.628Z,6.87
2019-01-08T13:43:56.107Z,6.23
2019-01-08T13:48:58.726Z,5.17
2019-01-08T13:54:01.228Z,3.50
2019-01-08T13:59:03.515Z,3.20
2019-01-08T14:04:05.934Z,3.83
2019-01-08T14:09:08.343Z,4.10
2019-01-08T14:14:10.734Z,7.10
2019-01-08T14:19:13.682Z,3.03
2019-01-08T14:24:16.371Z,3.40
2019-01-08T14:29:19.067Z,3.57
2019-01-08T14:34:22.031Z,4.73
2019-01-08T14:39:24.501Z,2.43
2019-01-08T14:44:27.438Z,2.43
2019-01-08T14:49:30.318Z,2.83
2019-01-08T14:54:32.464Z,3.93
2019-01-08T14:59:34.672Z,4.50
2019-01-08T15:04:37.553Z,4.80
2019-01-08T15:09:39.705Z,2.67
2019-01-08T15:14:42.622Z,5.93
2019-01-08T15:19:45.762Z,3.50
2019-01-08T15:24:47.936Z,7.07
2019-01-08T15:29:50.441Z,4.00
2019-01-08T15:34:53.621Z,5.60
2019-01-08T15:39:56.774Z,6.47
2019-01-08T15:44:59.133Z,8.70
2019-01-08T15:50:01.362Z,7.70
2019-01-08T15:55:04.465Z,6.57
2019-01-08T16:00:08.312Z,5.73
2019-01-08T16:05:11.155Z,7.70
2019-01-08T16:10:13.802Z,9.80
2019-01-08T16:15:15.947Z,11.80
2019-01-08T16:20:18.186Z,10.00
2019-01-08T16:25:20.827Z,8.50
2019-01-08T16:30:23.235Z,10.00
2019-01-08T16:35:25.400Z,5.83
2019-01-08T16:40:27.724Z,5.60
2019-01-08T16:45:30.139Z,8.00
2019-01-08T16:50:33.099Z,4.03
2019-01-08T16:55:35.232Z,5.67
2019-01-08T17:00:37.426Z,6.73
2019-01-08T17:05:39.670Z,6.43
2019-01-08T17:10:41.938Z,4.50
2019-01-08T17:15:44.850Z,5.73
2019-01-08T17:20:47.075Z,7.40
2019-01-08T17:25:50.066Z,4.53
2019-01-08T17:30:52.186Z,5.40
2019-01-08T17:35:54.464Z,4.97
2019-01-08T17:40:56.640Z,4.00
2019-01-08T17:45:59.113Z,3.33
2019-01-08T17:51:01.538Z,7.30
2019-01-08T17:56:03.758Z,7.07
2019-01-08T18:01:25.384Z,6.43
2019-01-08T18:06:27.619Z,5.60
2019-01-08T18:11:29.681Z,4.97
2019-01-08T18:16:32.850Z,5.90
2019-01-08T18:21:34.972Z,4.20
2019-01-08T18:26:39.269Z,4.83
2019-01-08T18:31:41.435Z,3.77
2019-01-08T18:36:43.762Z,3.13
2019-01-08T18:41:47.563Z,3.13
2019-01-08T18:46:49.958Z,3.23
2019-01-08T18:51:52.359Z,4.33
2019-01-08T18:56:54.787Z,3.80
2019-01-08T19:01:56.949Z,5.00
2019-01-08T19:06:59.058Z,3.03
2019-01-08T19:12:01.625Z,4.33
2019-01-08T19:17:04.045Z,4.13
2019-01-08T19:22:06.603Z,5.87
2019-01-08T19:27:08.767Z,5.03
2019-01-08T19:32:11.293Z,2.73
2019-01-08T19:37:13.503Z,4.27
2019-01-08T19:42:16.396Z,5.63
2019-01-08T19:47:18.583Z,5.53
2019-01-08T19:52:21.750Z,5.80
2019-01-08T19:57:23.925Z,4.90
2019-01-08T20:02:26.488Z,3.40
2019-01-08T20:07:28.942Z,4.73
2019-01-08T20:12:31.644Z,3.17
2019-01-08T20:17:34.170Z,5.97
2019-01-08T20:22:36.852Z,3.60
2019-01-08T20:27:39.840Z,5.33
2019-01-08T20:32:41.973Z,7.23
2019-01-08T20:37:44.365Z,5.27
2019-01-08T20:42:46.755Z,3.50
2019-01-08T20:47:48.909Z,6.57
2019-01-08T20:52:51.153Z,4.67
2019-01-08T20:57:53.329Z,4.53
2019-01-08T21:02:55.736Z,8.57
2019-01-08T21:07:58.422Z,5.20
2019-01-08T21:13:01.281Z,2.90
2019-01-08T21:18:03.445Z,4.03
2019-01-08T21:23:05.705Z,6.97
2019-01-08T21:28:07.872Z,5.93
2019-01-08T21:33:10.508Z,3.17
2019-01-08T21:38:13.437Z,3.60
2019-01-08T21:43:15.911Z,4.50
2019-01-08T21:48:18.085Z,4.03
2019-01-08T21:53:20.260Z,5.33
2019-01-08T21:58:23.268Z,5.63
2019-01-08T22:03:25.436Z,2.93
2019-01-08T22:08:28.078Z,2.70
2019-01-08T22:13:30.252Z,3.00
2019-01-08T22:18:33.129Z,3.73
2019-01-08T22:23:35.751Z,4.47
2019-01-08T22:28:38.210Z,1.63
2019-01-08T22:33:40.608Z,3.23
2019-01-08T22:38:43.015Z,2.10
2019-01-08T22:43:45.298Z,3.30
2019-01-08T22:48:47.585Z,4.00
2019-01-08T22:53:49.848Z,1.67
2019-01-08T22:58:52.507Z,1.17
2019-01-08T23:03:55.414Z,2.70
2019-01-08T23:08:58.063Z,1.70
2019-01-08T23:14:00.404Z,3.27
2019-01-08T23:19:02.731Z,3.37
2019-01-08T23:24:04.923Z,1.70
2019-01-08T23:29:07.099Z,0.77
2019-01-08T23:34:10.729Z,1.30
2019-01-08T23:39:13.198Z,0.97
2019-01-08T23:44:16.207Z,1.03
2019-01-08T23:49:19.871Z,1.20
2019-01-08T23:54:24.910Z,0.90
2019-01-08T23:59:27.522Z,1.00
